sensor_id;sensor_type;location;lat;lon;timestamp;temperature;humidity
67054;SHT31;53960;51.826;5.850;2022-10-17T00:01:09;14.97;95.55
67054;SHT31;53960;51.826;5.850;2022-10-17T00:03:36;14.91;95.60
67054;SHT31;53960;51.826;5.850;2022-10-17T00:06:07;14.86;95.73
67054;SHT31;53960;51.826;5.850;2022-10-17T00:08:34;14.88;96.04
67054;SHT31;53960;51.826;5.850;2022-10-17T00:11:02;14.91;96.20
67054;SHT31;53960;51.826;5.850;2022-10-17T00:13:28;14.86;95.85
67054;SHT31;53960;51.826;5.850;2022-10-17T00:15:54;14.86;96.08
67054;SHT31;53960;51.826;5.850;2022-10-17T00:18:19;14.93;96.32
67054;SHT31;53960;51.826;5.850;2022-10-17T00:20:45;14.94;96.22
67054;SHT31;53960;51.826;5.850;2022-10-17T00:23:10;14.98;95.95
67054;SHT31;53960;51.826;5.850;2022-10-17T00:25:35;15.10;96.08
67054;SHT31;53960;51.826;5.850;2022-10-17T00:28:02;15.14;95.93
67054;SHT31;53960;51.826;5.850;2022-10-17T00:30:27;15.17;95.72
67054;SHT31;53960;51.826;5.850;2022-10-17T00:32:52;15.20;95.69
67054;SHT31;53960;51.826;5.850;2022-10-17T00:35:18;15.17;95.65
67054;SHT31;53960;51.826;5.850;2022-10-17T00:37:43;15.21;95.75
67054;SHT31;53960;51.826;5.850;2022-10-17T00:40:09;15.23;95.50
67054;SHT31;53960;51.826;5.850;2022-10-17T00:42:34;15.20;95.83
67054;SHT31;53960;51.826;5.850;2022-10-17T00:45:05;15.20;95.67
67054;SHT31;53960;51.826;5.850;2022-10-17T00:47:32;15.21;95.86
67054;SHT31;53960;51.826;5.850;2022-10-17T00:49:58;15.25;95.79
67054;SHT31;53960;51.826;5.850;2022-10-17T00:52:26;15.28;95.75
67054;SHT31;53960;51.826;5.850;2022-10-17T00:54:56;15.32;95.74
67054;SHT31;53960;51.826;5.850;2022-10-17T00:57:23;15.34;95.61
67054;SHT31;53960;51.826;5.850;2022-10-17T00:59:51;15.39;95.54
67054;SHT31;53960;51.826;5.850;2022-10-17T01:02:20;15.39;95.51
67054;SHT31;53960;51.826;5.850;2022-10-17T01:04:49;15.41;95.63
67054;SHT31;53960;51.826;5.850;2022-10-17T01:07:14;15.47;95.68
67054;SHT31;53960;51.826;5.850;2022-10-17T01:09:40;15.47;95.55
67054;SHT31;53960;51.826;5.850;2022-10-17T01:14:53;15.54;95.22
67054;SHT31;53960;51.826;5.850;2022-10-17T01:17:50;15.51;95.51
67054;SHT31;53960;51.826;5.850;2022-10-17T01:26:04;15.44;95.64
67054;SHT31;53960;51.826;5.850;2022-10-17T01:32:01;15.38;96.02
67054;SHT31;53960;51.826;5.850;2022-10-17T01:34:32;15.39;96.05
67054;SHT31;53960;51.826;5.850;2022-10-17T01:42:30;15.45;95.95
67054;SHT31;53960;51.826;5.850;2022-10-17T01:45:07;15.45;95.90
67054;SHT31;53960;51.826;5.850;2022-10-17T01:47:33;15.55;95.81
67054;SHT31;53960;51.826;5.850;2022-10-17T01:50:02;15.58;95.50
67054;SHT31;53960;51.826;5.850;2022-10-17T01:52:36;15.52;95.75
67054;SHT31;53960;51.826;5.850;2022-10-17T01:55:10;15.56;95.69
67054;SHT31;53960;51.826;5.850;2022-10-17T01:57:50;15.58;95.60
67054;SHT31;53960;51.826;5.850;2022-10-17T02:00:19;15.56;95.62
67054;SHT31;53960;51.826;5.850;2022-10-17T02:02:47;15.59;95.58
67054;SHT31;53960;51.826;5.850;2022-10-17T02:05:15;15.59;95.73
67054;SHT31;53960;51.826;5.850;2022-10-17T02:07:41;15.56;95.54
67054;SHT31;53960;51.826;5.850;2022-10-17T02:10:18;15.56;95.61
67054;SHT31;53960;51.826;5.850;2022-10-17T02:12:55;15.54;95.86
67054;SHT31;53960;51.826;5.850;2022-10-17T02:18:35;15.56;95.97
67054;SHT31;53960;51.826;5.850;2022-10-17T02:21:10;15.68;95.87
67054;SHT31;53960;51.826;5.850;2022-10-17T02:23:53;15.75;95.60
67054;SHT31;53960;51.826;5.850;2022-10-17T02:26:27;15.82;95.15
67054;SHT31;53960;51.826;5.850;2022-10-17T02:34:36;15.76;95.00
67054;SHT31;53960;51.826;5.850;2022-10-17T02:37:04;15.78;95.09
67054;SHT31;53960;51.826;5.850;2022-10-17T02:39:32;15.76;95.00
67054;SHT31;53960;51.826;5.850;2022-10-17T02:42:01;15.72;95.19
67054;SHT31;53960;51.826;5.850;2022-10-17T02:44:30;15.63;95.25
67054;SHT31;53960;51.826;5.850;2022-10-17T02:47:08;15.62;95.36
67054;SHT31;53960;51.826;5.850;2022-10-17T02:49:38;15.55;95.70
67054;SHT31;53960;51.826;5.850;2022-10-17T02:52:17;15.66;95.52
67054;SHT31;53960;51.826;5.850;2022-10-17T02:54:54;15.69;95.44
67054;SHT31;53960;51.826;5.850;2022-10-17T02:57:40;15.69;95.17
67054;SHT31;53960;51.826;5.850;2022-10-17T03:00:10;15.69;95.32
67054;SHT31;53960;51.826;5.850;2022-10-17T03:05:10;15.66;95.45
67054;SHT31;53960;51.826;5.850;2022-10-17T03:07:36;15.65;95.60
67054;SHT31;53960;51.826;5.850;2022-10-17T03:10:02;15.62;95.57
67054;SHT31;53960;51.826;5.850;2022-10-17T03:12:28;15.59;95.80
67054;SHT31;53960;51.826;5.850;2022-10-17T03:14:53;15.62;95.79
67054;SHT31;53960;51.826;5.850;2022-10-17T03:17:18;15.68;95.62
67054;SHT31;53960;51.826;5.850;2022-10-17T03:19:44;15.73;95.33
67054;SHT31;53960;51.826;5.850;2022-10-17T03:22:09;15.69;95.49
67054;SHT31;53960;51.826;5.850;2022-10-17T03:24:34;15.65;95.43
67054;SHT31;53960;51.826;5.850;2022-10-17T03:26:59;15.66;95.40
67054;SHT31;53960;51.826;5.850;2022-10-17T03:29:25;15.69;95.46
67054;SHT31;53960;51.826;5.850;2022-10-17T03:31:50;15.68;95.40
67054;SHT31;53960;51.826;5.850;2022-10-17T03:34:15;15.68;95.54
67054;SHT31;53960;51.826;5.850;2022-10-17T03:36:43;15.73;95.40
67054;SHT31;53960;51.826;5.850;2022-10-17T03:39:08;15.79;95.30
67054;SHT31;53960;51.826;5.850;2022-10-17T03:41:34;15.85;95.09
67054;SHT31;53960;51.826;5.850;2022-10-17T03:43:59;15.85;95.03
67054;SHT31;53960;51.826;5.850;2022-10-17T03:46:25;15.83;94.88
67054;SHT31;53960;51.826;5.850;2022-10-17T03:48:50;15.82;95.12
67054;SHT31;53960;51.826;5.850;2022-10-17T03:51:16;15.82;95.07
67054;SHT31;53960;51.826;5.850;2022-10-17T03:53:41;15.82;94.94
67054;SHT31;53960;51.826;5.850;2022-10-17T03:56:12;15.86;94.97
67054;SHT31;53960;51.826;5.850;2022-10-17T03:58:38;15.89;94.94
67054;SHT31;53960;51.826;5.850;2022-10-17T04:01:06;15.87;94.88
67054;SHT31;53960;51.826;5.850;2022-10-17T04:03:31;15.82;95.00
67054;SHT31;53960;51.826;5.850;2022-10-17T04:05:58;15.89;95.01
67054;SHT31;53960;51.826;5.850;2022-10-17T04:08:24;15.96;94.73
67054;SHT31;53960;51.826;5.850;2022-10-17T04:10:49;15.96;94.63
67054;SHT31;53960;51.826;5.850;2022-10-17T04:13:15;16.00;94.56
67054;SHT31;53960;51.826;5.850;2022-10-17T04:15:40;15.97;94.64
67054;SHT31;53960;51.826;5.850;2022-10-17T04:18:05;16.05;94.42
67054;SHT31;53960;51.826;5.850;2022-10-17T04:20:33;16.12;94.34
67054;SHT31;53960;51.826;5.850;2022-10-17T04:22:58;16.17;93.93
67054;SHT31;53960;51.826;5.850;2022-10-17T04:25:24;16.14;93.89
67054;SHT31;53960;51.826;5.850;2022-10-17T04:27:49;16.14;93.78
67054;SHT31;53960;51.826;5.850;2022-10-17T04:30:15;16.14;93.87
67054;SHT31;53960;51.826;5.850;2022-10-17T04:32:40;16.14;93.94
67054;SHT31;53960;51.826;5.850;2022-10-17T04:35:06;16.13;93.63
67054;SHT31;53960;51.826;5.850;2022-10-17T04:37:31;16.10;93.81
67054;SHT31;53960;51.826;5.850;2022-10-17T04:39:56;16.12;93.78
67054;SHT31;53960;51.826;5.850;2022-10-17T04:42:22;16.17;93.78
67054;SHT31;53960;51.826;5.850;2022-10-17T04:44:47;16.17;93.68
67054;SHT31;53960;51.826;5.850;2022-10-17T04:47:12;16.16;93.63
67054;SHT31;53960;51.826;5.850;2022-10-17T04:49:38;16.18;93.43
67054;SHT31;53960;51.826;5.850;2022-10-17T04:52:03;16.16;93.52
67054;SHT31;53960;51.826;5.850;2022-10-17T04:54:29;16.16;93.31
67054;SHT31;53960;51.826;5.850;2022-10-17T04:56:54;16.14;93.33
67054;SHT31;53960;51.826;5.850;2022-10-17T04:59:20;16.10;93.46
67054;SHT31;53960;51.826;5.850;2022-10-17T05:01:47;16.09;93.47
67054;SHT31;53960;51.826;5.850;2022-10-17T05:04:13;16.07;93.73
67054;SHT31;53960;51.826;5.850;2022-10-17T05:06:38;15.97;93.95
67054;SHT31;53960;51.826;5.850;2022-10-17T05:09:03;15.95;94.04
67054;SHT31;53960;51.826;5.850;2022-10-17T05:11:29;15.86;94.31
67054;SHT31;53960;51.826;5.850;2022-10-17T05:13:56;15.78;94.50
67054;SHT31;53960;51.826;5.850;2022-10-17T05:16:22;15.75;94.71
67054;SHT31;53960;51.826;5.850;2022-10-17T05:18:52;15.76;94.67
67054;SHT31;53960;51.826;5.850;2022-10-17T05:21:19;15.79;94.57
67054;SHT31;53960;51.826;5.850;2022-10-17T05:23:45;15.73;94.57
67054;SHT31;53960;51.826;5.850;2022-10-17T05:26:10;15.73;94.85
67054;SHT31;53960;51.826;5.850;2022-10-17T05:28:35;15.69;94.83
67054;SHT31;53960;51.826;5.850;2022-10-17T05:31:05;15.68;94.98
67054;SHT31;53960;51.826;5.850;2022-10-17T05:33:31;15.63;94.99
67054;SHT31;53960;51.826;5.850;2022-10-17T05:35:57;15.63;95.19
67054;SHT31;53960;51.826;5.850;2022-10-17T05:38:22;15.63;95.24
67054;SHT31;53960;51.826;5.850;2022-10-17T05:40:48;15.66;95.28
67054;SHT31;53960;51.826;5.850;2022-10-17T05:43:13;15.69;95.22
67054;SHT31;53960;51.826;5.850;2022-10-17T05:45:39;15.70;95.09
67054;SHT31;53960;51.826;5.850;2022-10-17T05:48:04;15.75;95.02
67054;SHT31;53960;51.826;5.850;2022-10-17T05:50:30;15.73;95.09
67054;SHT31;53960;51.826;5.850;2022-10-17T05:52:55;15.70;95.24
67054;SHT31;53960;51.826;5.850;2022-10-17T05:55:21;15.72;95.15
67054;SHT31;53960;51.826;5.850;2022-10-17T05:57:48;15.73;95.24
67054;SHT31;53960;51.826;5.850;2022-10-17T06:00:14;15.81;95.00
67054;SHT31;53960;51.826;5.850;2022-10-17T06:02:39;15.79;94.91
67054;SHT31;53960;51.826;5.850;2022-10-17T06:05:04;15.85;94.94
67054;SHT31;53960;51.826;5.850;2022-10-17T06:07:30;15.81;95.09
67054;SHT31;53960;51.826;5.850;2022-10-17T06:09:55;15.86;94.99
67054;SHT31;53960;51.826;5.850;2022-10-17T06:12:23;15.92;94.76
67054;SHT31;53960;51.826;5.850;2022-10-17T06:14:48;15.93;94.70
67054;SHT31;53960;51.826;5.850;2022-10-17T06:17:13;15.95;94.66
67054;SHT31;53960;51.826;5.850;2022-10-17T06:19:38;15.90;94.74
67054;SHT31;53960;51.826;5.850;2022-10-17T06:22:05;15.90;94.81
67054;SHT31;53960;51.826;5.850;2022-10-17T06:24:31;15.93;94.74
67054;SHT31;53960;51.826;5.850;2022-10-17T06:26:56;16.03;94.49
67054;SHT31;53960;51.826;5.850;2022-10-17T06:29:22;16.07;94.27
67054;SHT31;53960;51.826;5.850;2022-10-17T06:31:47;16.05;94.29
67054;SHT31;53960;51.826;5.850;2022-10-17T06:34:12;16.10;94.31
67054;SHT31;53960;51.826;5.850;2022-10-17T06:36:38;16.14;94.18
67054;SHT31;53960;51.826;5.850;2022-10-17T06:39:03;16.16;93.93
67054;SHT31;53960;51.826;5.850;2022-10-17T06:41:29;16.21;93.76
67054;SHT31;53960;51.826;5.850;2022-10-17T06:43:54;16.28;93.63
67054;SHT31;53960;51.826;5.850;2022-10-17T06:46:20;16.31;93.36
67054;SHT31;53960;51.826;5.850;2022-10-17T06:48:45;16.26;93.45
67054;SHT31;53960;51.826;5.850;2022-10-17T06:51:11;16.28;93.66
67054;SHT31;53960;51.826;5.850;2022-10-17T06:53:38;16.40;93.23
67054;SHT31;53960;51.826;5.850;2022-10-17T06:56:05;16.40;93.17
67054;SHT31;53960;51.826;5.850;2022-10-17T06:58:32;16.38;93.21
67054;SHT31;53960;51.826;5.850;2022-10-17T07:01:02;16.41;93.23
67054;SHT31;53960;51.826;5.850;2022-10-17T07:03:28;16.38;93.36
67054;SHT31;53960;51.826;5.850;2022-10-17T07:05:54;16.44;93.08
67054;SHT31;53960;51.826;5.850;2022-10-17T07:08:20;16.45;93.02
67054;SHT31;53960;51.826;5.850;2022-10-17T07:10:45;16.45;93.07
67054;SHT31;53960;51.826;5.850;2022-10-17T07:13:11;16.50;92.93
67054;SHT31;53960;51.826;5.850;2022-10-17T07:15:37;16.51;92.86
67054;SHT31;53960;51.826;5.850;2022-10-17T07:18:03;16.54;92.86
67054;SHT31;53960;51.826;5.850;2022-10-17T07:20:28;16.55;92.82
67054;SHT31;53960;51.826;5.850;2022-10-17T07:22:53;16.61;92.71
67054;SHT31;53960;51.826;5.850;2022-10-17T07:25:19;16.68;92.51
67054;SHT31;53960;51.826;5.850;2022-10-17T07:27:44;16.75;92.35
67054;SHT31;53960;51.826;5.850;2022-10-17T07:30:10;16.84;92.18
67054;SHT31;53960;51.826;5.850;2022-10-17T07:32:35;16.81;91.90
67054;SHT31;53960;51.826;5.850;2022-10-17T07:35:00;16.82;92.05
67054;SHT31;53960;51.826;5.850;2022-10-17T07:37:26;16.84;92.02
67054;SHT31;53960;51.826;5.850;2022-10-17T07:39:51;16.81;92.05
67054;SHT31;53960;51.826;5.850;2022-10-17T07:42:16;16.86;91.83
67054;SHT31;53960;51.826;5.850;2022-10-17T07:44:42;16.94;91.77
67054;SHT31;53960;51.826;5.850;2022-10-17T07:47:10;16.91;91.73
67054;SHT31;53960;51.826;5.850;2022-10-17T07:49:35;16.88;91.84
67054;SHT31;53960;51.826;5.850;2022-10-17T07:52:08;16.85;92.02
67054;SHT31;53960;51.826;5.850;2022-10-17T07:54:34;16.79;92.13
67054;SHT31;53960;51.826;5.850;2022-10-17T07:56:59;16.82;91.98
67054;SHT31;53960;51.826;5.850;2022-10-17T07:59:24;16.79;91.97
67054;SHT31;53960;51.826;5.850;2022-10-17T08:01:50;16.74;92.04
67054;SHT31;53960;51.826;5.850;2022-10-17T08:04:15;16.65;92.30
67054;SHT31;53960;51.826;5.850;2022-10-17T08:06:41;16.61;92.66
67054;SHT31;53960;51.826;5.850;2022-10-17T08:09:06;16.50;93.11
67054;SHT31;53960;51.826;5.850;2022-10-17T08:11:32;16.47;93.48
67054;SHT31;53960;51.826;5.850;2022-10-17T08:13:57;16.41;93.68
67054;SHT31;53960;51.826;5.850;2022-10-17T08:16:22;16.34;94.20
67054;SHT31;53960;51.826;5.850;2022-10-17T08:18:48;16.24;94.86
67054;SHT31;53960;51.826;5.850;2022-10-17T08:21:13;16.17;94.99
67054;SHT31;53960;51.826;5.850;2022-10-17T08:23:39;16.17;95.40
67054;SHT31;53960;51.826;5.850;2022-10-17T08:26:07;16.16;95.72
67054;SHT31;53960;51.826;5.850;2022-10-17T08:28:36;16.18;96.19
67054;SHT31;53960;51.826;5.850;2022-10-17T08:31:07;16.18;96.43
67054;SHT31;53960;51.826;5.850;2022-10-17T08:33:33;16.23;96.45
67054;SHT31;53960;51.826;5.850;2022-10-17T08:36:00;16.24;96.73
67054;SHT31;53960;51.826;5.850;2022-10-17T08:38:28;16.21;97.14
67054;SHT31;53960;51.826;5.850;2022-10-17T08:40:56;16.26;97.08
67054;SHT31;53960;51.826;5.850;2022-10-17T08:43:48;16.28;97.16
67054;SHT31;53960;51.826;5.850;2022-10-17T08:46:18;16.27;97.55
67054;SHT31;53960;51.826;5.850;2022-10-17T08:48:45;16.31;97.70
67054;SHT31;53960;51.826;5.850;2022-10-17T08:51:25;16.33;97.78
67054;SHT31;53960;51.826;5.850;2022-10-17T08:53:56;16.28;98.29
67054;SHT31;53960;51.826;5.850;2022-10-17T08:56:24;16.31;98.22
67054;SHT31;53960;51.826;5.850;2022-10-17T08:58:50;16.31;98.51
67054;SHT31;53960;51.826;5.850;2022-10-17T09:01:31;16.31;98.61
67054;SHT31;53960;51.826;5.850;2022-10-17T09:07:18;16.36;98.43
67054;SHT31;53960;51.826;5.850;2022-10-17T09:09:57;16.33;98.70
67054;SHT31;53960;51.826;5.850;2022-10-17T09:18:06;16.37;98.71
67054;SHT31;53960;51.826;5.850;2022-10-17T09:20:43;16.36;99.05
67054;SHT31;53960;51.826;5.850;2022-10-17T09:23:20;16.36;99.11
67054;SHT31;53960;51.826;5.850;2022-10-17T09:25:49;16.33;99.22
67054;SHT31;53960;51.826;5.850;2022-10-17T09:30:55;16.34;99.43
67054;SHT31;53960;51.826;5.850;2022-10-17T09:33:30;16.37;99.50
67054;SHT31;53960;51.826;5.850;2022-10-17T09:35:58;16.34;99.53
67054;SHT31;53960;51.826;5.850;2022-10-17T09:38:30;16.34;99.60
67054;SHT31;53960;51.826;5.850;2022-10-17T09:41:00;16.33;99.57
67054;SHT31;53960;51.826;5.850;2022-10-17T09:43:26;16.33;99.62
67054;SHT31;53960;51.826;5.850;2022-10-17T09:49:18;16.30;99.92
67054;SHT31;53960;51.826;5.850;2022-10-17T09:51:47;16.26;99.85
67054;SHT31;53960;51.826;5.850;2022-10-17T09:54:22;16.26;99.86
67054;SHT31;53960;51.826;5.850;2022-10-17T09:59:33;16.31;99.99
67054;SHT31;53960;51.826;5.850;2022-10-17T10:04:54;16.30;99.99
67054;SHT31;53960;51.826;5.850;2022-10-17T10:07:20;16.40;99.96
67054;SHT31;53960;51.826;5.850;2022-10-17T10:09:47;16.45;99.94
67054;SHT31;53960;51.826;5.850;2022-10-17T10:12:25;16.48;99.78
67054;SHT31;53960;51.826;5.850;2022-10-17T10:14:51;16.45;99.69
67054;SHT31;53960;51.826;5.850;2022-10-17T10:17:37;16.41;99.68
67054;SHT31;53960;51.826;5.850;2022-10-17T10:20:30;16.43;99.73
67054;SHT31;53960;51.826;5.850;2022-10-17T10:23:22;16.47;99.87
67054;SHT31;53960;51.826;5.850;2022-10-17T10:25:51;16.55;99.75
67054;SHT31;53960;51.826;5.850;2022-10-17T10:28:18;16.63;99.65
67054;SHT31;53960;51.826;5.850;2022-10-17T10:30:48;16.64;99.51
67054;SHT31;53960;51.826;5.850;2022-10-17T10:33:18;16.69;99.50
67054;SHT31;53960;51.826;5.850;2022-10-17T10:35:51;16.79;99.31
67054;SHT31;53960;51.826;5.850;2022-10-17T10:38:19;16.72;99.30
67054;SHT31;53960;51.826;5.850;2022-10-17T10:40:51;16.67;99.44
67054;SHT31;53960;51.826;5.850;2022-10-17T10:43:40;16.68;99.41
67054;SHT31;53960;51.826;5.850;2022-10-17T10:46:22;16.74;99.44
67054;SHT31;53960;51.826;5.850;2022-10-17T10:48:58;16.79;99.41
67054;SHT31;53960;51.826;5.850;2022-10-17T10:51:45;16.84;99.41
67054;SHT31;53960;51.826;5.850;2022-10-17T10:54:16;16.85;99.38
67054;SHT31;53960;51.826;5.850;2022-10-17T10:56:45;16.89;99.21
67054;SHT31;53960;51.826;5.850;2022-10-17T10:59:38;16.88;99.22
67054;SHT31;53960;51.826;5.850;2022-10-17T11:02:18;16.88;99.15
67054;SHT31;53960;51.826;5.850;2022-10-17T11:04:51;16.89;99.34
67054;SHT31;53960;51.826;5.850;2022-10-17T11:07:34;16.89;99.07
67054;SHT31;53960;51.826;5.850;2022-10-17T11:10:24;16.89;99.01
67054;SHT31;53960;51.826;5.850;2022-10-17T11:13:03;16.86;98.78
67054;SHT31;53960;51.826;5.850;2022-10-17T11:15:39;16.85;98.88
67054;SHT31;53960;51.826;5.850;2022-10-17T11:18:19;16.81;98.95
67054;SHT31;53960;51.826;5.850;2022-10-17T11:23:50;16.78;99.22
67054;SHT31;53960;51.826;5.850;2022-10-17T11:26:25;16.74;99.42
67054;SHT31;53960;51.826;5.850;2022-10-17T11:28:55;16.74;99.42
67054;SHT31;53960;51.826;5.850;2022-10-17T11:31:24;16.76;99.30
67054;SHT31;53960;51.826;5.850;2022-10-17T11:33:56;16.78;99.33
67054;SHT31;53960;51.826;5.850;2022-10-17T11:36:35;16.82;99.28
67054;SHT31;53960;51.826;5.850;2022-10-17T11:41:44;16.88;98.95
67054;SHT31;53960;51.826;5.850;2022-10-17T11:46:57;16.84;99.00
67054;SHT31;53960;51.826;5.850;2022-10-17T11:49:29;16.84;99.16
67054;SHT31;53960;51.826;5.850;2022-10-17T11:52:04;16.79;99.27
67054;SHT31;53960;51.826;5.850;2022-10-17T11:54:52;16.78;99.15
67054;SHT31;53960;51.826;5.850;2022-10-17T11:57:41;16.84;98.92
67054;SHT31;53960;51.826;5.850;2022-10-17T12:00:39;16.82;98.82
67054;SHT31;53960;51.826;5.850;2022-10-17T12:03:18;16.82;98.84
67054;SHT31;53960;51.826;5.850;2022-10-17T12:06:10;16.82;98.80
67054;SHT31;53960;51.826;5.850;2022-10-17T12:08:54;16.82;98.75
67054;SHT31;53960;51.826;5.850;2022-10-17T12:11:29;16.79;98.93
67054;SHT31;53960;51.826;5.850;2022-10-17T12:13:59;16.78;98.96
67054;SHT31;53960;51.826;5.850;2022-10-17T12:21:27;16.81;98.84
67054;SHT31;53960;51.826;5.850;2022-10-17T12:23:53;16.74;98.96
67054;SHT31;53960;51.826;5.850;2022-10-17T12:26:27;16.74;99.15
67054;SHT31;53960;51.826;5.850;2022-10-17T12:28:54;16.71;99.19
67054;SHT31;53960;51.826;5.850;2022-10-17T12:31:24;16.74;99.24
67054;SHT31;53960;51.826;5.850;2022-10-17T12:33:52;16.74;99.35
67054;SHT31;53960;51.826;5.850;2022-10-17T12:38:48;16.79;99.31
67054;SHT31;53960;51.826;5.850;2022-10-17T12:41:14;16.86;99.25
67054;SHT31;53960;51.826;5.850;2022-10-17T12:43:50;16.86;99.25
67054;SHT31;53960;51.826;5.850;2022-10-17T12:49:40;16.91;99.13
67054;SHT31;53960;51.826;5.850;2022-10-17T12:54:46;16.95;99.21
67054;SHT31;53960;51.826;5.850;2022-10-17T13:02:46;17.06;98.78
67054;SHT31;53960;51.826;5.850;2022-10-17T13:05:29;17.11;98.84
67054;SHT31;53960;51.826;5.850;2022-10-17T13:07:57;17.12;98.89
67054;SHT31;53960;51.826;5.850;2022-10-17T13:10:26;17.09;98.81
67054;SHT31;53960;51.826;5.850;2022-10-17T13:12:57;17.11;98.73
67054;SHT31;53960;51.826;5.850;2022-10-17T13:15:24;17.09;98.76
67054;SHT31;53960;51.826;5.850;2022-10-17T13:17:57;17.09;98.82
67054;SHT31;53960;51.826;5.850;2022-10-17T13:20:24;17.11;98.83
67054;SHT31;53960;51.826;5.850;2022-10-17T13:22:52;17.05;98.81
67054;SHT31;53960;51.826;5.850;2022-10-17T13:25:19;17.03;98.94
67054;SHT31;53960;51.826;5.850;2022-10-17T13:27:45;17.02;98.91
67054;SHT31;53960;51.826;5.850;2022-10-17T13:32:51;16.99;99.00
67054;SHT31;53960;51.826;5.850;2022-10-17T13:35:24;17.01;98.84
67054;SHT31;53960;51.826;5.850;2022-10-17T13:37:51;17.01;98.86
67054;SHT31;53960;51.826;5.850;2022-10-17T13:40:20;17.01;98.96
67054;SHT31;53960;51.826;5.850;2022-10-17T13:42:46;17.02;99.28
67054;SHT31;53960;51.826;5.850;2022-10-17T13:45:25;16.99;99.21
67054;SHT31;53960;51.826;5.850;2022-10-17T13:47:53;17.01;99.30
67054;SHT31;53960;51.826;5.850;2022-10-17T13:50:25;16.99;99.20
67054;SHT31;53960;51.826;5.850;2022-10-17T13:55:38;17.03;99.03
67054;SHT31;53960;51.826;5.850;2022-10-17T13:58:16;17.08;99.07
67054;SHT31;53960;51.826;5.850;2022-10-17T14:00:43;17.12;99.09
67054;SHT31;53960;51.826;5.850;2022-10-17T14:03:09;17.13;98.98
67054;SHT31;53960;51.826;5.850;2022-10-17T14:05:35;17.15;98.98
67054;SHT31;53960;51.826;5.850;2022-10-17T14:08:20;17.15;99.04
67054;SHT31;53960;51.826;5.850;2022-10-17T14:10:46;17.23;99.06
67054;SHT31;53960;51.826;5.850;2022-10-17T14:13:28;17.29;99.11
67054;SHT31;53960;51.826;5.850;2022-10-17T14:15:58;17.30;98.97
67054;SHT31;53960;51.826;5.850;2022-10-17T14:18:27;17.29;98.91
67054;SHT31;53960;51.826;5.850;2022-10-17T14:20:53;17.33;98.95
67054;SHT31;53960;51.826;5.850;2022-10-17T14:26:09;17.30;98.90
67054;SHT31;53960;51.826;5.850;2022-10-17T14:28:35;17.32;98.99
67054;SHT31;53960;51.826;5.850;2022-10-17T14:31:24;17.34;98.99
67054;SHT31;53960;51.826;5.850;2022-10-17T14:33:53;17.33;98.93
67054;SHT31;53960;51.826;5.850;2022-10-17T14:36:20;17.33;98.86
67054;SHT31;53960;51.826;5.850;2022-10-17T14:38:53;17.23;98.62
67054;SHT31;53960;51.826;5.850;2022-10-17T14:44:23;17.26;98.77
67054;SHT31;53960;51.826;5.850;2022-10-17T14:46:58;17.27;98.59
67054;SHT31;53960;51.826;5.850;2022-10-17T14:52:19;17.32;98.31
67054;SHT31;53960;51.826;5.850;2022-10-17T14:54:48;17.26;98.21
67054;SHT31;53960;51.826;5.850;2022-10-17T14:57:39;17.29;98.57
67054;SHT31;53960;51.826;5.850;2022-10-17T15:00:06;17.29;98.54
67054;SHT31;53960;51.826;5.850;2022-10-17T15:02:31;17.27;98.61
67054;SHT31;53960;51.826;5.850;2022-10-17T15:04:56;17.26;98.51
67054;SHT31;53960;51.826;5.850;2022-10-17T15:07:22;17.22;98.47
67054;SHT31;53960;51.826;5.850;2022-10-17T15:09:49;17.25;98.50
67054;SHT31;53960;51.826;5.850;2022-10-17T15:12:17;17.23;98.50
67054;SHT31;53960;51.826;5.850;2022-10-17T15:14:44;17.16;98.41
67054;SHT31;53960;51.826;5.850;2022-10-17T15:17:29;17.13;98.65
67054;SHT31;53960;51.826;5.850;2022-10-17T15:19:56;17.16;98.55
67054;SHT31;53960;51.826;5.850;2022-10-17T15:22:22;17.12;98.51
67054;SHT31;53960;51.826;5.850;2022-10-17T15:24:47;17.09;98.73
67054;SHT31;53960;51.826;5.850;2022-10-17T15:27:19;17.08;98.58
67054;SHT31;53960;51.826;5.850;2022-10-17T15:29:45;17.12;98.69
67054;SHT31;53960;51.826;5.850;2022-10-17T15:32:11;17.05;98.62
67054;SHT31;53960;51.826;5.850;2022-10-17T15:34:36;17.06;98.73
67054;SHT31;53960;51.826;5.850;2022-10-17T15:37:03;17.08;98.57
67054;SHT31;53960;51.826;5.850;2022-10-17T15:39:28;17.05;98.71
67054;SHT31;53960;51.826;5.850;2022-10-17T15:41:54;17.06;98.74
67054;SHT31;53960;51.826;5.850;2022-10-17T15:44:19;17.06;98.74
67054;SHT31;53960;51.826;5.850;2022-10-17T15:46:45;17.06;98.65
67054;SHT31;53960;51.826;5.850;2022-10-17T15:49:12;17.02;98.63
67054;SHT31;53960;51.826;5.850;2022-10-17T15:51:38;17.01;98.86
67054;SHT31;53960;51.826;5.850;2022-10-17T15:54:04;16.99;98.80
67054;SHT31;53960;51.826;5.850;2022-10-17T15:56:32;16.96;99.00
67054;SHT31;53960;51.826;5.850;2022-10-17T15:59:01;16.94;99.06
67054;SHT31;53960;51.826;5.850;2022-10-17T16:01:29;16.96;98.95
67054;SHT31;53960;51.826;5.850;2022-10-17T16:03:55;16.94;98.78
67054;SHT31;53960;51.826;5.850;2022-10-17T16:06:21;16.89;98.78
67054;SHT31;53960;51.826;5.850;2022-10-17T16:08:47;16.84;98.91
67054;SHT31;53960;51.826;5.850;2022-10-17T16:11:32;16.78;98.97
67054;SHT31;53960;51.826;5.850;2022-10-17T16:14:00;16.76;98.99
67054;SHT31;53960;51.826;5.850;2022-10-17T16:16:26;16.68;99.18
67054;SHT31;53960;51.826;5.850;2022-10-17T16:18:52;16.69;99.09
67054;SHT31;53960;51.826;5.850;2022-10-17T16:21:18;16.63;99.30
67054;SHT31;53960;51.826;5.850;2022-10-17T16:23:44;16.61;99.35
67054;SHT31;53960;51.826;5.850;2022-10-17T16:26:10;16.61;99.49
67054;SHT31;53960;51.826;5.850;2022-10-17T16:28:39;16.54;99.66
67054;SHT31;53960;51.826;5.850;2022-10-17T16:31:16;16.54;99.53
67054;SHT31;53960;51.826;5.850;2022-10-17T16:33:41;16.50;99.51
67054;SHT31;53960;51.826;5.850;2022-10-17T16:36:07;16.45;99.59
67054;SHT31;53960;51.826;5.850;2022-10-17T16:38:32;16.43;99.76
67054;SHT31;53960;51.826;5.850;2022-10-17T16:40:57;16.40;99.79
67054;SHT31;53960;51.826;5.850;2022-10-17T16:43:23;16.37;99.86
67054;SHT31;53960;51.826;5.850;2022-10-17T16:45:48;16.37;99.93
67054;SHT31;53960;51.826;5.850;2022-10-17T16:48:13;16.33;99.97
67054;SHT31;53960;51.826;5.850;2022-10-17T16:50:39;16.33;99.99
67054;SHT31;53960;51.826;5.850;2022-10-17T16:53:04;16.30;99.98
67054;SHT31;53960;51.826;5.850;2022-10-17T16:55:30;16.30;99.99
67054;SHT31;53960;51.826;5.850;2022-10-17T16:57:55;16.30;99.99
67054;SHT31;53960;51.826;5.850;2022-10-17T17:00:20;16.30;99.96
67054;SHT31;53960;51.826;5.850;2022-10-17T17:02:47;16.27;99.92
67054;SHT31;53960;51.826;5.850;2022-10-17T17:05:12;16.27;99.91
67054;SHT31;53960;51.826;5.850;2022-10-17T17:07:37;16.31;99.99
67054;SHT31;53960;51.826;5.850;2022-10-17T17:10:03;16.28;99.99
67054;SHT31;53960;51.826;5.850;2022-10-17T17:12:31;16.24;99.99